TimeCDT,TemperatureF,Dew PointF,Humidity,Sea Level PressureIn,VisibilityMPH,Wind Direction,Wind SpeedMPH,Gust SpeedMPH,PrecipitationIn,Events,Conditions,WindDirDegrees,DateUTC
12:53 AM,72.0,70.0,93,29.86,6.0,SSW,3.5,-,0.01,Rain,Light Rain,210,2013-07-22 05:53:00
1:17 AM,71.6,69.8,94,29.89,2.5,West,10.4,-,0.05,Rain,Heavy Rain,260,2013-07-22 06:17:00
1:30 AM,71.6,69.8,94,29.88,2.0,WSW,8.1,-,0.12,Rain,Heavy Rain,250,2013-07-22 06:30:00
1:40 AM,71.6,69.8,94,29.88,1.5,West,6.9,-,0.20,Rain,Heavy Rain,260,2013-07-22 06:40:00
1:53 AM,72.0,70.0,93,29.86,1.2,Variable,3.5,-,0.35,Rain,Heavy Rain,0,2013-07-22 06:53:00
2:07 AM,71.6,69.8,94,29.88,1.8,SSW,6.9,-,0.16,Rain,Heavy Rain,200,2013-07-22 07:07:00
2:14 AM,71.6,69.8,94,29.87,2.0,SW,4.6,-,0.21,Rain,Heavy Rain,220,2013-07-22 07:14:00
2:26 AM,71.6,69.8,94,29.87,3.0,Calm,Calm,-,0.25,Rain,Rain,0,2013-07-22 07:26:00
2:53 AM,71.1,70.0,96,29.84,6.0,Calm,Calm,-,0.29,Rain,Light Rain,0,2013-07-22 07:53:00
3:53 AM,71.1,70.0,96,29.82,10.0,Calm,Calm,-,0.07,Rain,Light Rain,0,2013-07-22 08:53:00
4:53 AM,71.1,70.0,96,29.82,10.0,Calm,Calm,-,0.00,,Overcast,0,2013-07-22 09:53:00
5:53 AM,71.1,70.0,96,29.83,9.0,WSW,3.5,-,N/A,,Clear,240,2013-07-22 10:53:00
6:46 AM,71.6,69.8,94,29.84,9.0,Calm,Calm,-,N/A,,Mostly Cloudy,0,2013-07-22 11:46:00
6:53 AM,72.0,70.0,93,29.83,9.0,Calm,Calm,-,N/A,,Mostly Cloudy,0,2013-07-22 11:53:00
7:09 AM,71.6,71.6,100,29.85,9.0,Calm,Calm,-,N/A,,Scattered Clouds,0,2013-07-22 12:09:00
7:53 AM,73.0,72.0,96,29.85,8.0,North,-9999.0,-,N/A,,Scattered Clouds,0,2013-07-22 12:53:00
8:03 AM,73.4,71.6,94,29.87,8.0,North,-9999.0,-,N/A,,Mostly Cloudy,0,2013-07-22 13:03:00
8:13 AM,73.4,71.6,94,29.87,8.0,WSW,5.8,-,N/A,,Mostly Cloudy,250,2013-07-22 13:13:00
8:53 AM,73.9,72.0,93,29.87,9.0,West,6.9,-,N/A,,Overcast,260,2013-07-22 13:53:00
9:22 AM,75.2,73.4,94,29.89,8.0,WNW,5.8,-,N/A,,Overcast,300,2013-07-22 14:22:00
9:53 AM,77.0,73.0,88,29.88,10.0,West,6.9,-,N/A,,Mostly Cloudy,270,2013-07-22 14:53:00
10:25 AM,78.8,71.6,78,29.88,10.0,Variable,6.9,-,N/A,,Scattered Clouds,0,2013-07-22 15:25:00
10:33 AM,77.0,71.6,83,29.88,10.0,West,6.9,-,N/A,,Mostly Cloudy,280,2013-07-22 15:33:00
10:42 AM,78.8,71.6,78,29.88,10.0,WSW,5.8,-,N/A,,Scattered Clouds,250,2013-07-22 15:42:00
10:51 AM,78.8,71.6,78,29.88,10.0,West,4.6,-,N/A,,Mostly Cloudy,280,2013-07-22 15:51:00
10:53 AM,80.1,72.0,76,29.87,10.0,WSW,5.8,-,N/A,,Mostly Cloudy,240,2013-07-22 15:53:00
11:53 AM,81.0,72.0,74,29.88,10.0,West,6.9,-,N/A,,Mostly Cloudy,280,2013-07-22 16:53:00
12:02 PM,82.4,73.4,74,29.89,10.0,SW,5.8,-,N/A,,Overcast,230,2013-07-22 17:02:00
12:53 PM,82.9,72.0,69,29.87,10.0,West,10.4,-,N/A,,Mostly Cloudy,260,2013-07-22 17:53:00
1:53 PM,84.9,72.0,65,29.86,10.0,WSW,11.5,-,N/A,,Mostly Cloudy,250,2013-07-22 18:53:00
2:53 PM,86.0,73.0,65,29.86,10.0,WSW,10.4,-,N/A,,Scattered Clouds,250,2013-07-22 19:53:00
3:53 PM,87.1,72.0,61,29.84,10.0,WSW,10.4,-,N/A,,Partly Cloudy,250,2013-07-22 20:53:00
4:53 PM,86.0,73.0,65,29.83,10.0,WSW,8.1,-,N/A,,Clear,240,2013-07-22 21:53:00
5:53 PM,84.9,73.9,69,29.81,10.0,WSW,10.4,-,N/A,,Partly Cloudy,240,2013-07-22 22:53:00
6:53 PM,84.0,75.0,74,29.81,10.0,SW,6.9,-,N/A,,Partly Cloudy,220,2013-07-22 23:53:00
7:53 PM,81.0,73.9,79,29.83,9.0,Calm,Calm,-,N/A,,Clear,0,2013-07-23 00:53:00
8:53 PM,79.0,73.9,84,29.83,9.0,South,5.8,-,N/A,,Partly Cloudy,180,2013-07-23 01:53:00
9:53 PM,79.0,73.9,84,29.85,10.0,South,4.6,-,N/A,,Clear,170,2013-07-23 02:53:00
10:53 PM,78.1,73.9,87,29.85,10.0,SSW,5.8,-,N/A,,Clear,200,2013-07-23 03:53:00
11:53 PM,77.0,73.0,88,29.86,10.0,SW,5.8,-,N/A,,Mostly Cloudy,220,2013-07-23 04:53:00